sensor_id;sensor_type;location;lat;lon;timestamp;P1;durP1;ratioP1;P2;durP2;ratioP2
50165;SDS011;36071;48.140;11.516;2023-02-11T00:03:27;37.6;;;17.9;;
50165;SDS011;36071;48.140;11.516;2023-02-11T00:08:27;33.0;;;18.1;;
50165;SDS011;36071;48.140;11.516;2023-02-11T00:13:27;35.9;;;18.6;;
50165;SDS011;36071;48.140;11.516;2023-02-11T00:18:27;36.4;;;18.4;;
50165;SDS011;36071;48.140;11.516;2023-02-11T00:23:27;37.8;;;17.8;;
50165;SDS011;36071;48.140;11.516;2023-02-11T00:28:27;34.1;;;19.0;;
50165;SDS011;36071;48.140;11.516;2023-02-11T00:33:27;33.7;;;17.7;;
50165;SDS011;36071;48.140;11.516;2023-02-11T00:38:27;35.3;;;17.7;;
50165;SDS011;36071;48.140;11.516;2023-02-11T00:43:27;35.5;;;17.2;;
50165;SDS011;36071;48.140;11.516;2023-02-11T00:48:27;34.3;;;16.1;;
50165;SDS011;36071;48.140;11.516;2023-02-11T00:53:27;29.1;;;16.0;;
50165;SDS011;36071;48.140;11.516;2023-02-11T00:58:27;30.9;;;15.8;;
50165;SDS011;36071;48.140;11.516;2023-02-11T01:03:27;33.7;;;17.5;;
50165;SDS011;36071;48.140;11.516;2023-02-11T01:08:27;35.1;;;17.2;;
50165;SDS011;36071;48.140;11.516;2023-02-11T01:13:29;31.5;;;16.5;;
50165;SDS011;36071;48.140;11.516;2023-02-11T01:18:27;32.9;;;16.3;;
50165;SDS011;36071;48.140;11.516;2023-02-11T01:23:27;28.2;;;15.1;;
50165;SDS011;36071;48.140;11.516;2023-02-11T01:28:28;29.3;;;14.9;;
50165;SDS011;36071;48.140;11.516;2023-02-11T01:33:27;28.8;;;16.2;;
50165;SDS011;36071;48.140;11.516;2023-02-11T01:38:28;31.1;;;14.8;;
50165;SDS011;36071;48.140;11.516;2023-02-11T01:43:30;34.3;;;16.0;;
50165;SDS011;36071;48.140;11.516;2023-02-11T01:48:28;29.1;;;14.9;;
50165;SDS011;36071;48.140;11.516;2023-02-11T01:53:28;28.0;;;14.9;;
50165;SDS011;36071;48.140;11.516;2023-02-11T01:58:27;27.9;;;14.5;;
50165;SDS011;36071;48.140;11.516;2023-02-11T02:03:27;27.8;;;14.4;;
50165;SDS011;36071;48.140;11.516;2023-02-11T02:08:28;27.2;;;13.7;;
50165;SDS011;36071;48.140;11.516;2023-02-11T02:13:29;27.0;;;14.0;;
50165;SDS011;36071;48.140;11.516;2023-02-11T02:18:31;28.5;;;13.6;;
50165;SDS011;36071;48.140;11.516;2023-02-11T02:23:33;28.4;;;13.6;;
50165;SDS011;36071;48.140;11.516;2023-02-11T02:28:35;25.8;;;14.0;;
50165;SDS011;36071;48.140;11.516;2023-02-11T02:33:31;26.9;;;13.1;;
50165;SDS011;36071;48.140;11.516;2023-02-11T02:38:29;25.6;;;11.8;;
50165;SDS011;36071;48.140;11.516;2023-02-11T02:43:27;22.7;;;11.8;;
50165;SDS011;36071;48.140;11.516;2023-02-11T02:48:28;22.8;;;12.3;;
50165;SDS011;36071;48.140;11.516;2023-02-11T02:53:30;25.3;;;11.9;;
50165;SDS011;36071;48.140;11.516;2023-02-11T02:58:39;21.3;;;12.3;;
50165;SDS011;36071;48.140;11.516;2023-02-11T03:03:29;22.4;;;11.9;;
50165;SDS011;36071;48.140;11.516;2023-02-11T03:08:29;22.4;;;11.4;;
50165;SDS011;36071;48.140;11.516;2023-02-11T03:13:28;21.4;;;11.5;;
50165;SDS011;36071;48.140;11.516;2023-02-11T03:18:27;20.4;;;11.1;;
50165;SDS011;36071;48.140;11.516;2023-02-11T03:23:28;21.2;;;11.2;;
50165;SDS011;36071;48.140;11.516;2023-02-11T03:28:28;21.8;;;10.4;;
50165;SDS011;36071;48.140;11.516;2023-02-11T03:33:28;22.6;;;10.6;;
50165;SDS011;36071;48.140;11.516;2023-02-11T03:38:29;20.4;;;10.7;;
50165;SDS011;36071;48.140;11.516;2023-02-11T03:43:29;23.2;;;10.4;;
50165;SDS011;36071;48.140;11.516;2023-02-11T03:48:28;19.8;;;10.0;;
50165;SDS011;36071;48.140;11.516;2023-02-11T03:58:27;18.6;;;9.3;;
50165;SDS011;36071;48.140;11.516;2023-02-11T04:03:27;19.0;;;8.9;;
50165;SDS011;36071;48.140;11.516;2023-02-11T04:08:27;17.8;;;8.4;;
50165;SDS011;36071;48.140;11.516;2023-02-11T04:13:27;15.0;;;8.9;;
50165;SDS011;36071;48.140;11.516;2023-02-11T04:18:27;14.4;;;7.9;;
50165;SDS011;36071;48.140;11.516;2023-02-11T04:23:27;15.7;;;8.2;;
50165;SDS011;36071;48.140;11.516;2023-02-11T04:28:27;16.4;;;8.4;;
50165;SDS011;36071;48.140;11.516;2023-02-11T04:33:27;14.5;;;7.8;;
50165;SDS011;36071;48.140;11.516;2023-02-11T04:38:27;17.5;;;8.8;;
50165;SDS011;36071;48.140;11.516;2023-02-11T04:43:27;17.8;;;8.6;;
50165;SDS011;36071;48.140;11.516;2023-02-11T04:48:27;15.7;;;8.5;;
50165;SDS011;36071;48.140;11.516;2023-02-11T04:53:28;15.3;;;8.0;;
50165;SDS011;36071;48.140;11.516;2023-02-11T04:58:27;16.5;;;8.6;;
50165;SDS011;36071;48.140;11.516;2023-02-11T05:03:27;18.3;;;8.8;;
50165;SDS011;36071;48.140;11.516;2023-02-11T05:08:28;17.1;;;8.4;;
50165;SDS011;36071;48.140;11.516;2023-02-11T05:13:27;19.8;;;9.6;;
50165;SDS011;36071;48.140;11.516;2023-02-11T05:18:27;19.9;;;10.4;;
50165;SDS011;36071;48.140;11.516;2023-02-11T05:23:27;17.7;;;9.8;;
50165;SDS011;36071;48.140;11.516;2023-02-11T05:28:27;24.4;;;10.9;;
50165;SDS011;36071;48.140;11.516;2023-02-11T05:33:27;17.6;;;9.8;;
50165;SDS011;36071;48.140;11.516;2023-02-11T05:38:27;17.6;;;9.3;;
50165;SDS011;36071;48.140;11.516;2023-02-11T05:43:28;18.2;;;9.3;;
50165;SDS011;36071;48.140;11.516;2023-02-11T05:48:27;17.4;;;9.6;;
50165;SDS011;36071;48.140;11.516;2023-02-11T05:53:27;16.2;;;9.0;;
50165;SDS011;36071;48.140;11.516;2023-02-11T05:58:28;18.8;;;9.5;;
50165;SDS011;36071;48.140;11.516;2023-02-11T06:03:27;17.3;;;9.0;;
50165;SDS011;36071;48.140;11.516;2023-02-11T06:08:27;16.3;;;7.7;;
50165;SDS011;36071;48.140;11.516;2023-02-11T06:13:27;16.5;;;8.3;;
50165;SDS011;36071;48.140;11.516;2023-02-11T06:18:28;16.3;;;7.9;;
50165;SDS011;36071;48.140;11.516;2023-02-11T06:23:27;17.9;;;8.0;;
50165;SDS011;36071;48.140;11.516;2023-02-11T06:28:27;14.4;;;7.4;;
50165;SDS011;36071;48.140;11.516;2023-02-11T06:33:27;15.1;;;6.9;;
50165;SDS011;36071;48.140;11.516;2023-02-11T06:38:27;14.0;;;7.4;;
50165;SDS011;36071;48.140;11.516;2023-02-11T06:43:27;16.9;;;7.7;;
50165;SDS011;36071;48.140;11.516;2023-02-11T06:48:27;15.3;;;8.0;;
50165;SDS011;36071;48.140;11.516;2023-02-11T06:53:27;15.5;;;7.2;;
50165;SDS011;36071;48.140;11.516;2023-02-11T06:58:27;17.3;;;8.4;;
50165;SDS011;36071;48.140;11.516;2023-02-11T07:03:27;15.4;;;7.6;;
50165;SDS011;36071;48.140;11.516;2023-02-11T07:08:27;12.6;;;6.9;;
50165;SDS011;36071;48.140;11.516;2023-02-11T07:13:27;13.4;;;7.7;;
50165;SDS011;36071;48.140;11.516;2023-02-11T07:18:27;14.1;;;6.6;;
50165;SDS011;36071;48.140;11.516;2023-02-11T07:23:27;14.3;;;6.7;;
50165;SDS011;36071;48.140;11.516;2023-02-11T07:28:27;13.6;;;5.8;;
50165;SDS011;36071;48.140;11.516;2023-02-11T07:33:27;13.8;;;6.6;;
50165;SDS011;36071;48.140;11.516;2023-02-11T07:38:27;11.0;;;6.0;;
50165;SDS011;36071;48.140;11.516;2023-02-11T07:43:27;11.8;;;6.2;;
50165;SDS011;36071;48.140;11.516;2023-02-11T07:48:27;12.8;;;6.4;;
50165;SDS011;36071;48.140;11.516;2023-02-11T07:53:27;14.7;;;6.8;;
50165;SDS011;36071;48.140;11.516;2023-02-11T07:58:27;14.1;;;6.5;;
50165;SDS011;36071;48.140;11.516;2023-02-11T08:03:27;13.2;;;7.0;;
50165;SDS011;36071;48.140;11.516;2023-02-11T08:08:27;12.6;;;6.1;;
50165;SDS011;36071;48.140;11.516;2023-02-11T08:13:27;14.6;;;6.8;;
50165;SDS011;36071;48.140;11.516;2023-02-11T08:18:27;16.8;;;7.3;;
50165;SDS011;36071;48.140;11.516;2023-02-11T08:23:27;13.5;;;6.9;;
50165;SDS011;36071;48.140;11.516;2023-02-11T08:28:27;16.1;;;8.2;;
50165;SDS011;36071;48.140;11.516;2023-02-11T08:33:27;17.1;;;8.0;;
50165;SDS011;36071;48.140;11.516;2023-02-11T08:38:27;28.1;;;12.9;;
50165;SDS011;36071;48.140;11.516;2023-02-11T08:43:27;20.7;;;9.3;;
50165;SDS011;36071;48.140;11.516;2023-02-11T08:48:27;26.3;;;12.0;;
50165;SDS011;36071;48.140;11.516;2023-02-11T08:53:27;24.9;;;10.6;;
50165;SDS011;36071;48.140;11.516;2023-02-11T08:58:27;20.7;;;10.4;;
50165;SDS011;36071;48.140;11.516;2023-02-11T09:03:27;20.7;;;10.1;;
50165;SDS011;36071;48.140;11.516;2023-02-11T09:08:28;25.2;;;11.3;;
50165;SDS011;36071;48.140;11.516;2023-02-11T09:13:27;22.5;;;10.5;;
50165;SDS011;36071;48.140;11.516;2023-02-11T09:18:27;26.5;;;11.0;;
50165;SDS011;36071;48.140;11.516;2023-02-11T09:23:27;21.1;;;10.5;;
50165;SDS011;36071;48.140;11.516;2023-02-11T09:28:27;26.2;;;9.8;;
50165;SDS011;36071;48.140;11.516;2023-02-11T09:33:27;23.3;;;10.9;;
50165;SDS011;36071;48.140;11.516;2023-02-11T09:38:27;22.2;;;10.8;;
50165;SDS011;36071;48.140;11.516;2023-02-11T09:43:30;73.0;;;31.9;;
50165;SDS011;36071;48.140;11.516;2023-02-11T09:48:27;35.1;;;16.4;;
50165;SDS011;36071;48.140;11.516;2023-02-11T09:53:28;27.9;;;12.7;;
50165;SDS011;36071;48.140;11.516;2023-02-11T09:58:28;25.7;;;12.2;;
50165;SDS011;36071;48.140;11.516;2023-02-11T10:03:47;21.8;;;11.6;;
50165;SDS011;36071;48.140;11.516;2023-02-11T10:08:29;22.1;;;11.6;;
50165;SDS011;36071;48.140;11.516;2023-02-11T10:13:31;22.3;;;11.5;;
50165;SDS011;36071;48.140;11.516;2023-02-11T10:18:32;24.6;;;12.0;;
50165;SDS011;36071;48.140;11.516;2023-02-11T10:23:28;21.9;;;10.4;;
50165;SDS011;36071;48.140;11.516;2023-02-11T10:28:28;37.4;;;15.9;;
50165;SDS011;36071;48.140;11.516;2023-02-11T10:33:28;31.0;;;13.6;;
50165;SDS011;36071;48.140;11.516;2023-02-11T10:38:27;24.0;;;11.9;;
50165;SDS011;36071;48.140;11.516;2023-02-11T10:43:28;36.3;;;15.7;;
50165;SDS011;36071;48.140;11.516;2023-02-11T10:48:36;25.2;;;12.0;;
50165;SDS011;36071;48.140;11.516;2023-02-11T10:53:27;29.5;;;13.5;;
50165;SDS011;36071;48.140;11.516;2023-02-11T10:58:29;27.7;;;13.2;;
50165;SDS011;36071;48.140;11.516;2023-02-11T11:03:29;24.9;;;12.5;;
50165;SDS011;36071;48.140;11.516;2023-02-11T11:08:36;26.3;;;12.3;;
50165;SDS011;36071;48.140;11.516;2023-02-11T11:13:28;23.7;;;12.1;;
50165;SDS011;36071;48.140;11.516;2023-02-11T11:18:27;25.3;;;11.8;;
50165;SDS011;36071;48.140;11.516;2023-02-11T11:23:28;22.0;;;11.5;;
50165;SDS011;36071;48.140;11.516;2023-02-11T11:28:28;25.7;;;12.2;;
50165;SDS011;36071;48.140;11.516;2023-02-11T11:33:28;24.9;;;11.2;;
50165;SDS011;36071;48.140;11.516;2023-02-11T11:38:28;23.5;;;10.7;;
50165;SDS011;36071;48.140;11.516;2023-02-11T11:43:27;21.6;;;10.8;;
50165;SDS011;36071;48.140;11.516;2023-02-11T11:48:28;24.2;;;10.8;;
50165;SDS011;36071;48.140;11.516;2023-02-11T11:53:28;17.7;;;10.0;;
50165;SDS011;36071;48.140;11.516;2023-02-11T11:58:28;25.2;;;10.8;;
50165;SDS011;36071;48.140;11.516;2023-02-11T12:03:33;22.0;;;10.3;;
50165;SDS011;36071;48.140;11.516;2023-02-11T12:08:29;20.7;;;10.7;;
50165;SDS011;36071;48.140;11.516;2023-02-11T12:13:31;21.1;;;10.5;;
50165;SDS011;36071;48.140;11.516;2023-02-11T12:18:31;20.8;;;11.1;;
50165;SDS011;36071;48.140;11.516;2023-02-11T12:23:31;19.9;;;10.1;;
50165;SDS011;36071;48.140;11.516;2023-02-11T12:28:30;19.8;;;10.3;;
50165;SDS011;36071;48.140;11.516;2023-02-11T12:33:32;20.8;;;10.4;;
50165;SDS011;36071;48.140;11.516;2023-02-11T12:38:31;23.5;;;11.0;;
50165;SDS011;36071;48.140;11.516;2023-02-11T12:43:29;21.4;;;10.8;;
50165;SDS011;36071;48.140;11.516;2023-02-11T12:48:35;23.2;;;10.6;;
50165;SDS011;36071;48.140;11.516;2023-02-11T12:53:32;24.1;;;10.8;;
50165;SDS011;36071;48.140;11.516;2023-02-11T12:58:28;22.6;;;10.9;;
50165;SDS011;36071;48.140;11.516;2023-02-11T13:03:29;20.8;;;10.7;;
50165;SDS011;36071;48.140;11.516;2023-02-11T13:08:28;25.8;;;11.6;;
50165;SDS011;36071;48.140;11.516;2023-02-11T13:13:28;21.0;;;11.0;;
50165;SDS011;36071;48.140;11.516;2023-02-11T13:18:30;24.3;;;10.9;;
50165;SDS011;36071;48.140;11.516;2023-02-11T13:23:29;18.4;;;9.9;;
50165;SDS011;36071;48.140;11.516;2023-02-11T13:28:31;20.5;;;10.4;;
50165;SDS011;36071;48.140;11.516;2023-02-11T13:33:30;18.0;;;9.1;;
50165;SDS011;36071;48.140;11.516;2023-02-11T13:38:28;19.1;;;9.7;;
50165;SDS011;36071;48.140;11.516;2023-02-11T13:43:28;17.3;;;8.9;;
50165;SDS011;36071;48.140;11.516;2023-02-11T13:48:28;18.2;;;8.9;;
50165;SDS011;36071;48.140;11.516;2023-02-11T13:53:27;18.6;;;8.6;;
50165;SDS011;36071;48.140;11.516;2023-02-11T13:58:35;17.3;;;8.8;;
50165;SDS011;36071;48.140;11.516;2023-02-11T14:03:29;19.1;;;9.2;;
50165;SDS011;36071;48.140;11.516;2023-02-11T14:08:27;20.8;;;9.5;;
50165;SDS011;36071;48.140;11.516;2023-02-11T14:13:28;18.9;;;9.1;;
50165;SDS011;36071;48.140;11.516;2023-02-11T14:18:35;21.6;;;9.7;;
50165;SDS011;36071;48.140;11.516;2023-02-11T14:23:27;19.2;;;8.9;;
50165;SDS011;36071;48.140;11.516;2023-02-11T14:28:27;17.3;;;9.2;;
50165;SDS011;36071;48.140;11.516;2023-02-11T14:33:34;18.7;;;9.4;;
50165;SDS011;36071;48.140;11.516;2023-02-11T14:38:30;19.9;;;9.8;;
50165;SDS011;36071;48.140;11.516;2023-02-11T14:43:29;25.7;;;12.8;;
50165;SDS011;36071;48.140;11.516;2023-02-11T14:48:28;24.4;;;12.1;;
50165;SDS011;36071;48.140;11.516;2023-02-11T14:53:28;28.3;;;14.1;;
50165;SDS011;36071;48.140;11.516;2023-02-11T14:58:28;24.7;;;14.2;;
50165;SDS011;36071;48.140;11.516;2023-02-11T15:03:29;25.2;;;13.3;;
50165;SDS011;36071;48.140;11.516;2023-02-11T15:08:28;23.9;;;13.7;;
50165;SDS011;36071;48.140;11.516;2023-02-11T15:13:28;24.5;;;14.3;;
50165;SDS011;36071;48.140;11.516;2023-02-11T15:18:30;25.0;;;13.8;;
50165;SDS011;36071;48.140;11.516;2023-02-11T15:23:27;26.2;;;14.8;;
50165;SDS011;36071;48.140;11.516;2023-02-11T15:28:28;27.5;;;14.8;;
50165;SDS011;36071;48.140;11.516;2023-02-11T15:33:27;24.5;;;14.1;;
50165;SDS011;36071;48.140;11.516;2023-02-11T15:38:28;32.2;;;16.1;;
50165;SDS011;36071;48.140;11.516;2023-02-11T15:43:43;29.4;;;15.6;;
50165;SDS011;36071;48.140;11.516;2023-02-11T15:48:31;31.5;;;15.6;;
50165;SDS011;36071;48.140;11.516;2023-02-11T15:53:28;27.9;;;15.7;;
50165;SDS011;36071;48.140;11.516;2023-02-11T15:58:27;31.3;;;17.4;;
50165;SDS011;36071;48.140;11.516;2023-02-11T16:03:28;30.1;;;16.2;;
50165;SDS011;36071;48.140;11.516;2023-02-11T16:08:28;29.7;;;16.1;;
50165;SDS011;36071;48.140;11.516;2023-02-11T16:13:28;31.3;;;16.4;;
50165;SDS011;36071;48.140;11.516;2023-02-11T16:18:29;41.2;;;22.6;;
50165;SDS011;36071;48.140;11.516;2023-02-11T16:23:28;38.7;;;20.2;;
50165;SDS011;36071;48.140;11.516;2023-02-11T16:28:27;88.2;;;44.8;;
50165;SDS011;36071;48.140;11.516;2023-02-11T16:33:28;49.0;;;24.0;;
50165;SDS011;36071;48.140;11.516;2023-02-11T16:38:28;88.8;;;45.1;;
50165;SDS011;36071;48.140;11.516;2023-02-11T16:43:27;61.1;;;31.4;;
50165;SDS011;36071;48.140;11.516;2023-02-11T16:48:27;37.0;;;20.3;;
50165;SDS011;36071;48.140;11.516;2023-02-11T16:53:27;33.2;;;17.9;;
50165;SDS011;36071;48.140;11.516;2023-02-11T16:58:27;32.1;;;17.1;;
50165;SDS011;36071;48.140;11.516;2023-02-11T17:03:27;29.8;;;17.3;;
50165;SDS011;36071;48.140;11.516;2023-02-11T17:08:27;34.9;;;17.3;;
50165;SDS011;36071;48.140;11.516;2023-02-11T17:13:28;32.3;;;18.5;;
50165;SDS011;36071;48.140;11.516;2023-02-11T17:18:27;34.0;;;17.8;;
50165;SDS011;36071;48.140;11.516;2023-02-11T17:23:27;34.1;;;19.1;;
50165;SDS011;36071;48.140;11.516;2023-02-11T17:28:27;39.7;;;21.5;;
50165;SDS011;36071;48.140;11.516;2023-02-11T17:33:27;110.9;;;51.0;;
50165;SDS011;36071;48.140;11.516;2023-02-11T17:38:27;94.4;;;46.5;;
50165;SDS011;36071;48.140;11.516;2023-02-11T17:43:27;46.9;;;24.4;;
50165;SDS011;36071;48.140;11.516;2023-02-11T17:48:27;41.3;;;22.5;;
50165;SDS011;36071;48.140;11.516;2023-02-11T17:53:27;38.1;;;21.0;;
50165;SDS011;36071;48.140;11.516;2023-02-11T17:58:27;37.4;;;21.8;;
50165;SDS011;36071;48.140;11.516;2023-02-11T18:03:27;42.3;;;22.4;;
50165;SDS011;36071;48.140;11.516;2023-02-11T18:08:28;39.4;;;22.1;;
50165;SDS011;36071;48.140;11.516;2023-02-11T18:13:27;39.4;;;22.0;;
50165;SDS011;36071;48.140;11.516;2023-02-11T18:18:27;40.9;;;21.7;;
50165;SDS011;36071;48.140;11.516;2023-02-11T18:23:28;39.8;;;22.9;;
50165;SDS011;36071;48.140;11.516;2023-02-11T18:28:27;38.9;;;22.0;;
50165;SDS011;36071;48.140;11.516;2023-02-11T18:33:28;40.9;;;22.6;;
50165;SDS011;36071;48.140;11.516;2023-02-11T18:38:27;39.2;;;22.2;;
50165;SDS011;36071;48.140;11.516;2023-02-11T18:43:28;39.8;;;21.1;;
50165;SDS011;36071;48.140;11.516;2023-02-11T18:48:27;41.6;;;20.0;;
50165;SDS011;36071;48.140;11.516;2023-02-11T18:53:27;37.3;;;20.2;;
50165;SDS011;36071;48.140;11.516;2023-02-11T18:58:27;41.1;;;21.2;;
50165;SDS011;36071;48.140;11.516;2023-02-11T19:03:27;37.2;;;20.3;;
50165;SDS011;36071;48.140;11.516;2023-02-11T19:08:27;37.7;;;20.6;;
50165;SDS011;36071;48.140;11.516;2023-02-11T19:13:28;41.5;;;22.4;;
50165;SDS011;36071;48.140;11.516;2023-02-11T19:18:27;41.6;;;23.2;;
50165;SDS011;36071;48.140;11.516;2023-02-11T19:23:27;62.2;;;33.0;;
50165;SDS011;36071;48.140;11.516;2023-02-11T19:28:27;42.4;;;22.9;;
50165;SDS011;36071;48.140;11.516;2023-02-11T19:33:27;44.5;;;23.3;;
50165;SDS011;36071;48.140;11.516;2023-02-11T19:38:27;61.9;;;30.9;;
50165;SDS011;36071;48.140;11.516;2023-02-11T19:43:28;43.9;;;23.8;;
50165;SDS011;36071;48.140;11.516;2023-02-11T19:48:27;44.9;;;25.0;;
50165;SDS011;36071;48.140;11.516;2023-02-11T19:53:28;49.7;;;27.1;;
50165;SDS011;36071;48.140;11.516;2023-02-11T19:58:27;54.6;;;29.6;;
50165;SDS011;36071;48.140;11.516;2023-02-11T20:03:27;47.6;;;26.2;;
50165;SDS011;36071;48.140;11.516;2023-02-11T20:08:27;52.6;;;26.4;;
50165;SDS011;36071;48.140;11.516;2023-02-11T20:13:27;45.8;;;24.9;;
50165;SDS011;36071;48.140;11.516;2023-02-11T20:18:27;58.9;;;28.7;;
50165;SDS011;36071;48.140;11.516;2023-02-11T20:23:27;52.7;;;28.2;;
50165;SDS011;36071;48.140;11.516;2023-02-11T20:28:28;83.3;;;43.9;;
50165;SDS011;36071;48.140;11.516;2023-02-11T20:33:29;59.9;;;31.7;;
50165;SDS011;36071;48.140;11.516;2023-02-11T20:38:29;52.4;;;27.7;;
50165;SDS011;36071;48.140;11.516;2023-02-11T20:43:27;87.2;;;45.9;;
50165;SDS011;36071;48.140;11.516;2023-02-11T20:48:28;71.5;;;38.0;;
50165;SDS011;36071;48.140;11.516;2023-02-11T20:53:27;118.3;;;56.2;;
50165;SDS011;36071;48.140;11.516;2023-02-11T20:58:27;127.5;;;56.3;;
50165;SDS011;36071;48.140;11.516;2023-02-11T21:03:27;88.7;;;42.4;;
50165;SDS011;36071;48.140;11.516;2023-02-11T21:08:27;51.9;;;27.2;;
50165;SDS011;36071;48.140;11.516;2023-02-11T21:13:27;46.1;;;23.7;;
50165;SDS011;36071;48.140;11.516;2023-02-11T21:18:27;42.7;;;24.8;;
50165;SDS011;36071;48.140;11.516;2023-02-11T21:23:27;42.8;;;23.8;;
50165;SDS011;36071;48.140;11.516;2023-02-11T21:28:27;41.1;;;23.0;;
50165;SDS011;36071;48.140;11.516;2023-02-11T21:33:28;39.5;;;22.5;;
50165;SDS011;36071;48.140;11.516;2023-02-11T21:38:28;44.4;;;24.1;;
50165;SDS011;36071;48.140;11.516;2023-02-11T21:43:27;43.6;;;22.2;;
50165;SDS011;36071;48.140;11.516;2023-02-11T21:48:28;40.6;;;21.5;;
50165;SDS011;36071;48.140;11.516;2023-02-11T21:53:27;33.6;;;18.9;;
50165;SDS011;36071;48.140;11.516;2023-02-11T21:58:27;55.5;;;29.2;;
50165;SDS011;36071;48.140;11.516;2023-02-11T22:03:27;42.6;;;23.1;;
50165;SDS011;36071;48.140;11.516;2023-02-11T22:08:28;41.8;;;22.7;;
50165;SDS011;36071;48.140;11.516;2023-02-11T22:13:27;115.5;;;59.5;;
50165;SDS011;36071;48.140;11.516;2023-02-11T22:18:28;70.9;;;37.6;;
50165;SDS011;36071;48.140;11.516;2023-02-11T22:23:28;48.2;;;26.3;;
50165;SDS011;36071;48.140;11.516;2023-02-11T22:28:28;43.6;;;22.0;;
50165;SDS011;36071;48.140;11.516;2023-02-11T22:33:27;40.1;;;21.2;;
50165;SDS011;36071;48.140;11.516;2023-02-11T22:38:28;42.9;;;21.0;;
50165;SDS011;36071;48.140;11.516;2023-02-11T22:43:27;39.0;;;22.4;;
50165;SDS011;36071;48.140;11.516;2023-02-11T22:48:27;41.1;;;22.0;;
50165;SDS011;36071;48.140;11.516;2023-02-11T22:53:27;39.0;;;21.5;;
50165;SDS011;36071;48.140;11.516;2023-02-11T22:58:27;39.7;;;21.0;;
50165;SDS011;36071;48.140;11.516;2023-02-11T23:03:27;34.1;;;20.0;;
50165;SDS011;36071;48.140;11.516;2023-02-11T23:08:28;36.4;;;20.2;;
50165;SDS011;36071;48.140;11.516;2023-02-11T23:13:27;36.9;;;20.4;;
50165;SDS011;36071;48.140;11.516;2023-02-11T23:18:27;37.0;;;20.1;;
50165;SDS011;36071;48.140;11.516;2023-02-11T23:23:27;33.7;;;19.3;;
50165;SDS011;36071;48.140;11.516;2023-02-11T23:28:27;50.3;;;28.2;;
50165;SDS011;36071;48.140;11.516;2023-02-11T23:33:27;69.5;;;35.4;;
50165;SDS011;36071;48.140;11.516;2023-02-11T23:38:27;65.3;;;33.4;;
50165;SDS011;36071;48.140;11.516;2023-02-11T23:43:27;121.6;;;58.0;;
50165;SDS011;36071;48.140;11.516;2023-02-11T23:48:27;40.2;;;23.3;;
50165;SDS011;36071;48.140;11.516;2023-02-11T23:53:27;59.3;;;30.6;;
50165;SDS011;36071;48.140;11.516;2023-02-11T23:58:27;42.2;;;22.5;;
